sensor_id;sensor_type;location;lat;lon;timestamp;P1;durP1;ratioP1;P2;durP2;ratioP2
9819;SDS011;4949;48.482;9.206;2023-04-25T00:03:37;4.97;;;4.50;;
9819;SDS011;4949;48.482;9.206;2023-04-25T00:08:43;4.57;;;4.17;;
9819;SDS011;4949;48.482;9.206;2023-04-25T00:13:44;4.67;;;3.90;;
9819;SDS011;4949;48.482;9.206;2023-04-25T00:18:46;5.13;;;4.60;;
9819;SDS011;4949;48.482;9.206;2023-04-25T00:23:54;5.37;;;4.23;;
9819;SDS011;4949;48.482;9.206;2023-04-25T00:28:55;4.40;;;4.00;;
9819;SDS011;4949;48.482;9.206;2023-04-25T00:33:56;4.63;;;4.20;;
9819;SDS011;4949;48.482;9.206;2023-04-25T00:38:57;6.10;;;3.37;;
9819;SDS011;4949;48.482;9.206;2023-04-25T00:43:58;3.67;;;3.37;;
9819;SDS011;4949;48.482;9.206;2023-04-25T00:49:00;6.53;;;4.03;;
9819;SDS011;4949;48.482;9.206;2023-04-25T00:54:01;4.40;;;3.57;;
9819;SDS011;4949;48.482;9.206;2023-04-25T00:59:04;7.90;;;3.70;;
9819;SDS011;4949;48.482;9.206;2023-04-25T01:04:06;3.77;;;3.47;;
9819;SDS011;4949;48.482;9.206;2023-04-25T01:09:07;4.97;;;3.47;;
9819;SDS011;4949;48.482;9.206;2023-04-25T01:14:08;10.50;;;6.23;;
9819;SDS011;4949;48.482;9.206;2023-04-25T01:19:09;4.87;;;4.47;;
9819;SDS011;4949;48.482;9.206;2023-04-25T01:24:14;4.27;;;3.83;;
9819;SDS011;4949;48.482;9.206;2023-04-25T01:29:16;3.77;;;3.43;;
9819;SDS011;4949;48.482;9.206;2023-04-25T01:34:18;4.80;;;4.30;;
9819;SDS011;4949;48.482;9.206;2023-04-25T01:39:19;5.23;;;3.30;;
9819;SDS011;4949;48.482;9.206;2023-04-25T01:44:20;4.90;;;3.43;;
9819;SDS011;4949;48.482;9.206;2023-04-25T01:49:24;7.80;;;3.73;;
9819;SDS011;4949;48.482;9.206;2023-04-25T01:54:24;4.07;;;3.33;;
9819;SDS011;4949;48.482;9.206;2023-04-25T01:59:25;6.73;;;4.10;;
9819;SDS011;4949;48.482;9.206;2023-04-25T02:04:26;4.17;;;3.73;;
9819;SDS011;4949;48.482;9.206;2023-04-25T02:09:27;3.90;;;3.13;;
9819;SDS011;4949;48.482;9.206;2023-04-25T02:14:33;3.33;;;3.03;;
9819;SDS011;4949;48.482;9.206;2023-04-25T02:19:33;3.30;;;3.00;;
9819;SDS011;4949;48.482;9.206;2023-04-25T02:24:34;4.13;;;3.63;;
9819;SDS011;4949;48.482;9.206;2023-04-25T02:29:39;3.50;;;3.20;;
9819;SDS011;4949;48.482;9.206;2023-04-25T02:34:40;4.90;;;3.63;;
9819;SDS011;4949;48.482;9.206;2023-04-25T02:39:43;5.23;;;3.50;;
9819;SDS011;4949;48.482;9.206;2023-04-25T02:44:46;3.70;;;3.40;;
9819;SDS011;4949;48.482;9.206;2023-04-25T02:49:47;3.20;;;3.00;;
9819;SDS011;4949;48.482;9.206;2023-04-25T02:54:48;3.20;;;2.90;;
9819;SDS011;4949;48.482;9.206;2023-04-25T02:59:52;3.97;;;3.47;;
9819;SDS011;4949;48.482;9.206;2023-04-25T03:04:53;4.53;;;3.80;;
9819;SDS011;4949;48.482;9.206;2023-04-25T03:09:53;3.50;;;3.20;;
9819;SDS011;4949;48.482;9.206;2023-04-25T03:14:55;3.53;;;3.23;;
9819;SDS011;4949;48.482;9.206;2023-04-25T03:19:56;3.23;;;2.93;;
9819;SDS011;4949;48.482;9.206;2023-04-25T03:24:59;3.83;;;3.20;;
9819;SDS011;4949;48.482;9.206;2023-04-25T03:30:00;3.83;;;3.50;;
9819;SDS011;4949;48.482;9.206;2023-04-25T03:35:01;4.83;;;3.13;;
9819;SDS011;4949;48.482;9.206;2023-04-25T03:40:02;9.07;;;3.47;;
9819;SDS011;4949;48.482;9.206;2023-04-25T03:45:04;4.80;;;3.30;;
9819;SDS011;4949;48.482;9.206;2023-04-25T03:50:05;5.10;;;3.70;;
9819;SDS011;4949;48.482;9.206;2023-04-25T03:55:07;3.57;;;3.27;;
9819;SDS011;4949;48.482;9.206;2023-04-25T04:00:08;3.23;;;2.97;;
9819;SDS011;4949;48.482;9.206;2023-04-25T04:05:10;3.40;;;3.10;;
9819;SDS011;4949;48.482;9.206;2023-04-25T04:10:10;3.63;;;3.33;;
9819;SDS011;4949;48.482;9.206;2023-04-25T04:15:11;3.97;;;3.40;;
9819;SDS011;4949;48.482;9.206;2023-04-25T04:20:12;3.67;;;3.37;;
9819;SDS011;4949;48.482;9.206;2023-04-25T04:25:15;4.30;;;3.10;;
9819;SDS011;4949;48.482;9.206;2023-04-25T04:30:16;6.00;;;3.87;;
9819;SDS011;4949;48.482;9.206;2023-04-25T04:35:17;4.53;;;3.47;;
9819;SDS011;4949;48.482;9.206;2023-04-25T04:40:18;3.30;;;3.07;;
9819;SDS011;4949;48.482;9.206;2023-04-25T04:45:20;4.87;;;3.40;;
9819;SDS011;4949;48.482;9.206;2023-04-25T04:50:22;4.00;;;3.13;;
9819;SDS011;4949;48.482;9.206;2023-04-25T04:55:23;5.53;;;2.90;;
9819;SDS011;4949;48.482;9.206;2023-04-25T05:00:23;3.50;;;3.10;;
9819;SDS011;4949;48.482;9.206;2023-04-25T05:05:24;5.50;;;3.60;;
9819;SDS011;4949;48.482;9.206;2023-04-25T05:10:25;5.57;;;3.37;;
9819;SDS011;4949;48.482;9.206;2023-04-25T05:15:26;6.37;;;3.40;;
9819;SDS011;4949;48.482;9.206;2023-04-25T05:20:29;3.63;;;3.33;;
9819;SDS011;4949;48.482;9.206;2023-04-25T05:25:35;3.20;;;2.90;;
9819;SDS011;4949;48.482;9.206;2023-04-25T05:30:38;3.10;;;2.80;;
9819;SDS011;4949;48.482;9.206;2023-04-25T05:35:41;7.03;;;3.83;;
9819;SDS011;4949;48.482;9.206;2023-04-25T05:40:42;3.40;;;3.10;;
9819;SDS011;4949;48.482;9.206;2023-04-25T05:45:43;8.33;;;3.63;;
9819;SDS011;4949;48.482;9.206;2023-04-25T05:50:44;3.77;;;3.43;;
9819;SDS011;4949;48.482;9.206;2023-04-25T05:55:46;3.57;;;3.30;;
9819;SDS011;4949;48.482;9.206;2023-04-25T06:00:49;3.80;;;3.50;;
9819;SDS011;4949;48.482;9.206;2023-04-25T06:05:52;6.47;;;3.70;;
9819;SDS011;4949;48.482;9.206;2023-04-25T06:10:53;3.73;;;3.07;;
9819;SDS011;4949;48.482;9.206;2023-04-25T06:15:54;4.47;;;3.93;;
9819;SDS011;4949;48.482;9.206;2023-04-25T06:20:54;4.03;;;3.27;;
9819;SDS011;4949;48.482;9.206;2023-04-25T06:25:57;3.60;;;3.20;;
9819;SDS011;4949;48.482;9.206;2023-04-25T06:31:00;4.30;;;3.63;;
9819;SDS011;4949;48.482;9.206;2023-04-25T06:36:06;4.90;;;3.23;;
9819;SDS011;4949;48.482;9.206;2023-04-25T06:41:07;3.37;;;3.00;;
9819;SDS011;4949;48.482;9.206;2023-04-25T06:46:07;2.77;;;2.40;;
9819;SDS011;4949;48.482;9.206;2023-04-25T06:51:08;3.97;;;3.47;;
9819;SDS011;4949;48.482;9.206;2023-04-25T06:56:09;2.53;;;2.33;;
9819;SDS011;4949;48.482;9.206;2023-04-25T07:01:14;4.50;;;2.63;;
9819;SDS011;4949;48.482;9.206;2023-04-25T07:06:19;3.10;;;2.60;;
9819;SDS011;4949;48.482;9.206;2023-04-25T07:11:20;2.90;;;2.70;;
9819;SDS011;4949;48.482;9.206;2023-04-25T07:16:23;3.33;;;2.97;;
9819;SDS011;4949;48.482;9.206;2023-04-25T07:21:24;3.70;;;3.40;;
9819;SDS011;4949;48.482;9.206;2023-04-25T07:26:25;3.00;;;2.80;;
9819;SDS011;4949;48.482;9.206;2023-04-25T07:31:26;3.77;;;3.30;;
9819;SDS011;4949;48.482;9.206;2023-04-25T07:36:27;3.03;;;2.70;;
9819;SDS011;4949;48.482;9.206;2023-04-25T07:41:28;3.13;;;2.70;;
9819;SDS011;4949;48.482;9.206;2023-04-25T07:46:29;4.03;;;3.73;;
9819;SDS011;4949;48.482;9.206;2023-04-25T07:51:32;7.23;;;3.70;;
9819;SDS011;4949;48.482;9.206;2023-04-25T07:56:32;3.70;;;3.40;;
9819;SDS011;4949;48.482;9.206;2023-04-25T08:01:35;3.30;;;3.00;;
9819;SDS011;4949;48.482;9.206;2023-04-25T08:06:36;4.10;;;3.70;;
9819;SDS011;4949;48.482;9.206;2023-04-25T08:11:48;3.53;;;3.23;;
9819;SDS011;4949;48.482;9.206;2023-04-25T08:16:49;3.70;;;3.40;;
9819;SDS011;4949;48.482;9.206;2023-04-25T08:21:49;3.77;;;3.57;;
9819;SDS011;4949;48.482;9.206;2023-04-25T08:26:53;4.37;;;3.90;;
9819;SDS011;4949;48.482;9.206;2023-04-25T08:31:56;4.30;;;3.90;;
9819;SDS011;4949;48.482;9.206;2023-04-25T08:36:59;4.30;;;3.80;;
9819;SDS011;4949;48.482;9.206;2023-04-25T08:42:00;3.90;;;3.60;;
9819;SDS011;4949;48.482;9.206;2023-04-25T08:47:03;4.43;;;4.13;;
9819;SDS011;4949;48.482;9.206;2023-04-25T08:52:06;4.40;;;4.00;;
9819;SDS011;4949;48.482;9.206;2023-04-25T08:57:10;4.67;;;3.53;;
9819;SDS011;4949;48.482;9.206;2023-04-25T09:02:12;3.97;;;3.60;;
9819;SDS011;4949;48.482;9.206;2023-04-25T09:07:17;4.40;;;4.00;;
9819;SDS011;4949;48.482;9.206;2023-04-25T09:12:21;4.70;;;4.30;;
9819;SDS011;4949;48.482;9.206;2023-04-25T09:17:23;4.77;;;3.83;;
9819;SDS011;4949;48.482;9.206;2023-04-25T09:22:23;4.53;;;4.13;;
9819;SDS011;4949;48.482;9.206;2023-04-25T09:27:24;3.67;;;3.30;;
9819;SDS011;4949;48.482;9.206;2023-04-25T09:32:26;3.97;;;3.67;;
9819;SDS011;4949;48.482;9.206;2023-04-25T09:37:32;2.40;;;2.17;;
9819;SDS011;4949;48.482;9.206;2023-04-25T09:42:33;1.70;;;1.60;;
9819;SDS011;4949;48.482;9.206;2023-04-25T09:47:36;1.70;;;1.60;;
9819;SDS011;4949;48.482;9.206;2023-04-25T09:52:43;1.77;;;1.67;;
9819;SDS011;4949;48.482;9.206;2023-04-25T09:57:44;1.50;;;1.40;;
9819;SDS011;4949;48.482;9.206;2023-04-25T10:02:53;1.50;;;1.40;;
9819;SDS011;4949;48.482;9.206;2023-04-25T10:07:55;2.03;;;1.43;;
9819;SDS011;4949;48.482;9.206;2023-04-25T10:12:59;1.60;;;1.50;;
9819;SDS011;4949;48.482;9.206;2023-04-25T10:18:00;1.67;;;1.57;;
9819;SDS011;4949;48.482;9.206;2023-04-25T10:23:11;1.50;;;1.40;;
9819;SDS011;4949;48.482;9.206;2023-04-25T10:28:17;1.50;;;1.40;;
9819;SDS011;4949;48.482;9.206;2023-04-25T10:33:21;3.20;;;2.90;;
9819;SDS011;4949;48.482;9.206;2023-04-25T10:38:43;2.77;;;2.57;;
9819;SDS011;4949;48.482;9.206;2023-04-25T10:43:48;2.20;;;2.00;;
9819;SDS011;4949;48.482;9.206;2023-04-25T10:49:00;2.77;;;2.33;;
9819;SDS011;4949;48.482;9.206;2023-04-25T10:54:03;1.90;;;1.70;;
9819;SDS011;4949;48.482;9.206;2023-04-25T11:04:28;1.40;;;1.30;;
9819;SDS011;4949;48.482;9.206;2023-04-25T11:09:32;1.53;;;1.43;;
9819;SDS011;4949;48.482;9.206;2023-04-25T11:14:39;1.30;;;1.20;;
9819;SDS011;4949;48.482;9.206;2023-04-25T11:19:40;1.40;;;1.30;;
9819;SDS011;4949;48.482;9.206;2023-04-25T11:24:40;1.30;;;1.20;;
9819;SDS011;4949;48.482;9.206;2023-04-25T11:29:45;1.30;;;1.20;;
9819;SDS011;4949;48.482;9.206;2023-04-25T11:34:47;1.30;;;1.20;;
9819;SDS011;4949;48.482;9.206;2023-04-25T11:39:53;2.83;;;1.50;;
9819;SDS011;4949;48.482;9.206;2023-04-25T11:44:56;1.33;;;1.23;;
9819;SDS011;4949;48.482;9.206;2023-04-25T11:49:57;1.10;;;1.00;;
9819;SDS011;4949;48.482;9.206;2023-04-25T11:55:16;1.20;;;1.10;;
9819;SDS011;4949;48.482;9.206;2023-04-25T12:00:21;1.60;;;1.50;;
9819;SDS011;4949;48.482;9.206;2023-04-25T12:05:26;1.40;;;1.30;;
9819;SDS011;4949;48.482;9.206;2023-04-25T12:10:30;1.20;;;1.10;;
9819;SDS011;4949;48.482;9.206;2023-04-25T12:15:31;1.40;;;1.30;;
9819;SDS011;4949;48.482;9.206;2023-04-25T12:20:33;1.13;;;1.10;;
9819;SDS011;4949;48.482;9.206;2023-04-25T12:25:39;1.30;;;1.20;;
9819;SDS011;4949;48.482;9.206;2023-04-25T12:36:04;3.63;;;1.70;;
9819;SDS011;4949;48.482;9.206;2023-04-25T12:41:08;1.40;;;1.30;;
9819;SDS011;4949;48.482;9.206;2023-04-25T12:46:10;1.50;;;1.40;;
9819;SDS011;4949;48.482;9.206;2023-04-25T12:51:10;1.50;;;1.40;;
9819;SDS011;4949;48.482;9.206;2023-04-25T12:56:13;1.70;;;1.60;;
9819;SDS011;4949;48.482;9.206;2023-04-25T13:01:16;1.50;;;1.40;;
9819;SDS011;4949;48.482;9.206;2023-04-25T13:06:17;1.50;;;1.40;;
9819;SDS011;4949;48.482;9.206;2023-04-25T13:11:19;1.50;;;1.40;;
9819;SDS011;4949;48.482;9.206;2023-04-25T13:16:23;2.43;;;2.33;;
9819;SDS011;4949;48.482;9.206;2023-04-25T13:21:26;2.10;;;1.90;;
9819;SDS011;4949;48.482;9.206;2023-04-25T13:26:26;2.43;;;2.23;;
9819;SDS011;4949;48.482;9.206;2023-04-25T13:31:30;1.70;;;1.60;;
9819;SDS011;4949;48.482;9.206;2023-04-25T13:36:33;2.57;;;1.90;;
9819;SDS011;4949;48.482;9.206;2023-04-25T13:41:36;1.80;;;1.70;;
9819;SDS011;4949;48.482;9.206;2023-04-25T13:46:42;2.07;;;1.97;;
9819;SDS011;4949;48.482;9.206;2023-04-25T13:51:46;2.00;;;1.90;;
9819;SDS011;4949;48.482;9.206;2023-04-25T13:56:47;3.17;;;2.47;;
9819;SDS011;4949;48.482;9.206;2023-04-25T14:01:48;2.80;;;2.60;;
9819;SDS011;4949;48.482;9.206;2023-04-25T14:06:50;3.00;;;2.70;;
9819;SDS011;4949;48.482;9.206;2023-04-25T14:11:53;2.80;;;2.60;;
9819;SDS011;4949;48.482;9.206;2023-04-25T14:16:56;2.80;;;2.60;;
9819;SDS011;4949;48.482;9.206;2023-04-25T14:21:57;2.97;;;2.57;;
9819;SDS011;4949;48.482;9.206;2023-04-25T14:27:00;3.37;;;3.07;;
9819;SDS011;4949;48.482;9.206;2023-04-25T14:32:01;2.73;;;2.53;;
9819;SDS011;4949;48.482;9.206;2023-04-25T14:37:02;3.23;;;2.93;;
9819;SDS011;4949;48.482;9.206;2023-04-25T14:42:05;2.93;;;2.73;;
9819;SDS011;4949;48.482;9.206;2023-04-25T14:47:08;2.90;;;2.70;;
9819;SDS011;4949;48.482;9.206;2023-04-25T14:52:14;3.03;;;2.83;;
9819;SDS011;4949;48.482;9.206;2023-04-25T14:57:15;3.73;;;3.40;;
9819;SDS011;4949;48.482;9.206;2023-04-25T15:02:20;3.60;;;3.30;;
9819;SDS011;4949;48.482;9.206;2023-04-25T15:07:24;4.47;;;4.07;;
9819;SDS011;4949;48.482;9.206;2023-04-25T15:12:24;4.40;;;4.10;;
9819;SDS011;4949;48.482;9.206;2023-04-25T15:17:30;5.20;;;3.50;;
9819;SDS011;4949;48.482;9.206;2023-04-25T15:22:34;4.20;;;3.80;;
9819;SDS011;4949;48.482;9.206;2023-04-25T15:27:37;3.90;;;3.60;;
9819;SDS011;4949;48.482;9.206;2023-04-25T15:32:44;4.27;;;3.97;;
9819;SDS011;4949;48.482;9.206;2023-04-25T15:37:48;4.80;;;4.30;;
9819;SDS011;4949;48.482;9.206;2023-04-25T15:42:52;4.80;;;4.40;;
9819;SDS011;4949;48.482;9.206;2023-04-25T15:47:55;4.83;;;4.43;;
9819;SDS011;4949;48.482;9.206;2023-04-25T15:52:56;4.67;;;4.37;;
9819;SDS011;4949;48.482;9.206;2023-04-25T15:57:57;4.33;;;4.03;;
9819;SDS011;4949;48.482;9.206;2023-04-25T16:03:00;5.03;;;4.23;;
9819;SDS011;4949;48.482;9.206;2023-04-25T16:08:04;4.40;;;4.00;;
9819;SDS011;4949;48.482;9.206;2023-04-25T16:13:05;4.37;;;3.97;;
9819;SDS011;4949;48.482;9.206;2023-04-25T16:18:06;4.40;;;4.00;;
9819;SDS011;4949;48.482;9.206;2023-04-25T16:23:09;5.07;;;4.63;;
9819;SDS011;4949;48.482;9.206;2023-04-25T16:28:10;4.57;;;4.17;;
9819;SDS011;4949;48.482;9.206;2023-04-25T16:33:10;5.03;;;4.63;;
9819;SDS011;4949;48.482;9.206;2023-04-25T16:38:14;4.40;;;4.00;;
9819;SDS011;4949;48.482;9.206;2023-04-25T16:43:16;4.63;;;4.33;;
9819;SDS011;4949;48.482;9.206;2023-04-25T16:48:20;4.90;;;4.50;;
9819;SDS011;4949;48.482;9.206;2023-04-25T16:53:23;5.57;;;5.07;;
9819;SDS011;4949;48.482;9.206;2023-04-25T16:58:24;4.67;;;4.27;;
9819;SDS011;4949;48.482;9.206;2023-04-25T17:03:26;3.80;;;3.43;;
9819;SDS011;4949;48.482;9.206;2023-04-25T17:08:27;3.70;;;3.40;;
9819;SDS011;4949;48.482;9.206;2023-04-25T17:13:30;3.80;;;3.50;;
9819;SDS011;4949;48.482;9.206;2023-04-25T17:18:32;5.90;;;5.40;;
9819;SDS011;4949;48.482;9.206;2023-04-25T17:23:32;4.53;;;4.13;;
9819;SDS011;4949;48.482;9.206;2023-04-25T17:28:36;4.00;;;3.60;;
9819;SDS011;4949;48.482;9.206;2023-04-25T17:33:36;3.50;;;3.30;;
9819;SDS011;4949;48.482;9.206;2023-04-25T17:38:40;3.90;;;3.60;;
9819;SDS011;4949;48.482;9.206;2023-04-25T17:43:43;4.37;;;3.33;;
9819;SDS011;4949;48.482;9.206;2023-04-25T17:48:47;3.90;;;3.60;;
9819;SDS011;4949;48.482;9.206;2023-04-25T17:53:50;3.40;;;3.10;;
9819;SDS011;4949;48.482;9.206;2023-04-25T17:58:51;3.10;;;2.90;;
9819;SDS011;4949;48.482;9.206;2023-04-25T18:03:54;4.33;;;3.93;;
9819;SDS011;4949;48.482;9.206;2023-04-25T18:08:57;4.23;;;3.90;;
9819;SDS011;4949;48.482;9.206;2023-04-25T18:14:01;3.37;;;3.07;;
9819;SDS011;4949;48.482;9.206;2023-04-25T18:19:13;4.97;;;3.53;;
9819;SDS011;4949;48.482;9.206;2023-04-25T18:24:25;3.90;;;3.50;;
9819;SDS011;4949;48.482;9.206;2023-04-25T18:29:26;4.30;;;3.90;;
9819;SDS011;4949;48.482;9.206;2023-04-25T18:34:31;4.37;;;3.97;;
9819;SDS011;4949;48.482;9.206;2023-04-25T18:39:35;5.27;;;4.87;;
9819;SDS011;4949;48.482;9.206;2023-04-25T18:44:36;4.40;;;4.03;;
9819;SDS011;4949;48.482;9.206;2023-04-25T18:49:39;3.97;;;3.57;;
9819;SDS011;4949;48.482;9.206;2023-04-25T18:54:42;4.57;;;4.00;;
9819;SDS011;4949;48.482;9.206;2023-04-25T18:59:46;3.90;;;3.60;;
9819;SDS011;4949;48.482;9.206;2023-04-25T19:04:46;4.40;;;4.00;;
9819;SDS011;4949;48.482;9.206;2023-04-25T19:09:47;5.33;;;4.93;;
9819;SDS011;4949;48.482;9.206;2023-04-25T19:14:48;5.10;;;4.60;;
9819;SDS011;4949;48.482;9.206;2023-04-25T19:19:52;6.93;;;4.83;;
9819;SDS011;4949;48.482;9.206;2023-04-25T19:24:56;4.03;;;3.77;;
9819;SDS011;4949;48.482;9.206;2023-04-25T19:29:58;6.80;;;4.83;;
9819;SDS011;4949;48.482;9.206;2023-04-25T19:35:07;4.67;;;4.27;;
9819;SDS011;4949;48.482;9.206;2023-04-25T19:40:14;5.17;;;4.70;;
9819;SDS011;4949;48.482;9.206;2023-04-25T19:45:17;6.17;;;5.23;;
9819;SDS011;4949;48.482;9.206;2023-04-25T19:50:20;6.43;;;5.83;;
9819;SDS011;4949;48.482;9.206;2023-04-25T19:55:26;7.50;;;6.63;;
9819;SDS011;4949;48.482;9.206;2023-04-25T20:00:27;6.40;;;5.80;;
9819;SDS011;4949;48.482;9.206;2023-04-25T20:05:31;5.93;;;5.43;;
9819;SDS011;4949;48.482;9.206;2023-04-25T20:10:34;5.63;;;5.10;;
9819;SDS011;4949;48.482;9.206;2023-04-25T20:15:36;5.20;;;4.67;;
9819;SDS011;4949;48.482;9.206;2023-04-25T20:20:39;5.73;;;5.03;;
9819;SDS011;4949;48.482;9.206;2023-04-25T20:25:42;5.53;;;5.03;;
9819;SDS011;4949;48.482;9.206;2023-04-25T20:30:48;5.73;;;4.50;;
9819;SDS011;4949;48.482;9.206;2023-04-25T20:35:52;7.83;;;5.30;;
9819;SDS011;4949;48.482;9.206;2023-04-25T20:40:56;5.30;;;4.80;;
9819;SDS011;4949;48.482;9.206;2023-04-25T20:45:59;6.40;;;5.20;;
9819;SDS011;4949;48.482;9.206;2023-04-25T20:51:00;5.07;;;4.67;;
9819;SDS011;4949;48.482;9.206;2023-04-25T20:56:01;5.47;;;5.00;;
9819;SDS011;4949;48.482;9.206;2023-04-25T21:01:03;5.87;;;5.27;;
9819;SDS011;4949;48.482;9.206;2023-04-25T21:06:05;6.23;;;4.63;;
9819;SDS011;4949;48.482;9.206;2023-04-25T21:11:09;6.53;;;6.00;;
9819;SDS011;4949;48.482;9.206;2023-04-25T21:16:13;5.40;;;4.90;;
9819;SDS011;4949;48.482;9.206;2023-04-25T21:21:15;5.23;;;4.73;;
9819;SDS011;4949;48.482;9.206;2023-04-25T21:26:18;4.43;;;4.03;;
9819;SDS011;4949;48.482;9.206;2023-04-25T21:31:21;5.10;;;4.60;;
9819;SDS011;4949;48.482;9.206;2023-04-25T21:36:22;5.30;;;4.90;;
9819;SDS011;4949;48.482;9.206;2023-04-25T21:41:23;5.23;;;4.83;;
9819;SDS011;4949;48.482;9.206;2023-04-25T21:46:26;5.33;;;4.80;;
9819;SDS011;4949;48.482;9.206;2023-04-25T21:51:29;7.03;;;5.43;;
9819;SDS011;4949;48.482;9.206;2023-04-25T21:56:31;6.40;;;5.67;;
9819;SDS011;4949;48.482;9.206;2023-04-25T22:01:34;7.43;;;6.73;;
9819;SDS011;4949;48.482;9.206;2023-04-25T22:06:37;7.20;;;6.47;;
9819;SDS011;4949;48.482;9.206;2023-04-25T22:11:41;5.17;;;4.67;;
9819;SDS011;4949;48.482;9.206;2023-04-25T22:16:44;5.77;;;5.20;;
9819;SDS011;4949;48.482;9.206;2023-04-25T22:21:45;4.93;;;4.53;;
9819;SDS011;4949;48.482;9.206;2023-04-25T22:26:46;5.20;;;4.70;;
9819;SDS011;4949;48.482;9.206;2023-04-25T22:31:48;6.67;;;5.70;;
9819;SDS011;4949;48.482;9.206;2023-04-25T22:36:49;5.77;;;5.27;;
9819;SDS011;4949;48.482;9.206;2023-04-25T22:41:49;5.73;;;5.23;;
9819;SDS011;4949;48.482;9.206;2023-04-25T22:46:50;6.37;;;5.77;;
9819;SDS011;4949;48.482;9.206;2023-04-25T22:51:51;6.77;;;6.17;;
9819;SDS011;4949;48.482;9.206;2023-04-25T22:56:55;5.90;;;5.40;;
9819;SDS011;4949;48.482;9.206;2023-04-25T23:01:56;10.50;;;6.20;;
9819;SDS011;4949;48.482;9.206;2023-04-25T23:07:00;6.70;;;6.00;;
9819;SDS011;4949;48.482;9.206;2023-04-25T23:12:00;6.83;;;6.17;;
9819;SDS011;4949;48.482;9.206;2023-04-25T23:17:04;10.20;;;6.43;;
9819;SDS011;4949;48.482;9.206;2023-04-25T23:22:05;7.00;;;6.30;;
9819;SDS011;4949;48.482;9.206;2023-04-25T23:27:08;6.63;;;6.03;;
9819;SDS011;4949;48.482;9.206;2023-04-25T23:32:09;8.37;;;6.10;;
9819;SDS011;4949;48.482;9.206;2023-04-25T23:37:12;9.20;;;7.47;;
9819;SDS011;4949;48.482;9.206;2023-04-25T23:42:13;7.40;;;6.70;;
9819;SDS011;4949;48.482;9.206;2023-04-25T23:47:16;7.63;;;6.33;;
9819;SDS011;4949;48.482;9.206;2023-04-25T23:52:18;8.03;;;7.27;;
9819;SDS011;4949;48.482;9.206;2023-04-25T23:57:20;7.13;;;6.43;;
